Time;durP1;ratioP1;P1;durP2;ratioP2;P2;SDS_P1;SDS_P2;PMS_P1;PMS_P2;Temp;Humidity;BMP_temperature;BMP_pressure;BME280_temperature;BME280_humidity;BME280_pressure;Samples;Min_cycle;Max_cycle;Signal;HPM_P1;HPM_P2
2021/09/10 00:02:03;;;;;;;12.20;2.90;;;;;;;13.42;63.87;100236.06;111671;1203;26327;-58
2021/09/10 00:04:32;;;;;;;12.70;3.50;;;;;;;13.40;63.93;100234.52;112023;1204;22421;-59
2021/09/10 00:07:00;;;;;;;17.10;3.50;;;;;;;13.37;63.89;100233.02;111563;1204;22671;-59
2021/09/10 00:09:30;;;;;;;11.90;3.30;;;;;;;13.34;63.94;100233.15;111570;1204;24108;-59
2021/09/10 00:12:01;;;;;;;12.70;2.80;;;;;;;13.31;64.02;100232.32;111581;1204;22734;-58
2021/09/10 00:14:30;;;;;;;13.00;2.90;;;;;;;13.28;64.10;100231.64;111750;1203;22476;-59
2021/09/10 00:16:58;;;;;;;14.70;3.00;;;;;;;13.26;64.30;100234.42;111731;1203;22455;-61
2021/09/10 00:19:26;;;;;;;11.50;2.90;;;;;;;13.22;64.25;100236.22;111653;1203;25189;-60
2021/09/10 00:21:54;;;;;;;12.90;3.70;;;;;;;13.19;64.38;100238.89;111593;1204;22523;-59
2021/09/10 00:24:23;;;;;;;16.30;3.20;;;;;;;13.18;64.48;100237.96;111591;1204;22456;-60
2021/09/10 00:26:51;;;;;;;13.40;3.20;;;;;;;13.16;64.54;100237.45;111622;1203;22571;-58
2021/09/10 00:29:19;;;;;;;11.80;3.00;;;;;;;13.13;64.51;100236.60;111807;1203;22488;-61
2021/09/10 00:31:48;;;;;;;12.20;2.60;;;;;;;13.11;64.80;100231.94;111567;1204;22447;-59
2021/09/10 00:34:16;;;;;;;14.20;3.00;;;;;;;13.09;64.81;100233.35;111584;1204;24092;-59
2021/09/10 00:36:45;;;;;;;12.80;2.90;;;;;;;13.08;64.76;100233.66;111611;1203;24112;-59
2021/09/10 00:39:13;;;;;;;12.50;2.80;;;;;;;13.06;64.84;100233.22;111581;1204;22655;-59
2021/09/10 00:41:42;;;;;;;11.00;2.20;;;;;;;13.03;65.03;100234.14;111615;1203;22442;-58
2021/09/10 00:44:12;;;;;;;9.40;2.60;;;;;;;13.01;65.01;100234.88;111607;1203;22464;-58
2021/09/10 00:46:40;;;;;;;11.80;2.80;;;;;;;12.99;65.17;100233.40;111629;1203;25054;-58
2021/09/10 00:49:10;;;;;;;11.20;3.00;;;;;;;12.97;65.34;100229.60;111638;1203;22434;-58
2021/09/10 00:51:40;;;;;;;7.80;2.30;;;;;;;12.96;65.12;100230.00;111689;1204;24116;-59
2021/09/10 00:54:08;;;;;;;8.70;2.50;;;;;;;12.95;65.19;100234.59;111773;1203;25260;-59
2021/09/10 00:56:37;;;;;;;12.10;2.70;;;;;;;12.92;65.33;100234.92;111574;1203;22438;-59
2021/09/10 00:59:05;;;;;;;14.90;3.30;;;;;;;12.90;65.43;100235.14;111688;1204;24227;-58
2021/09/10 01:01:34;;;;;;;10.30;2.30;;;;;;;12.87;65.37;100237.25;111616;1203;25162;-58
2021/09/10 01:04:03;;;;;;;14.00;2.80;;;;;;;12.84;65.53;100240.02;111569;1203;25210;-58
2021/09/10 01:06:33;;;;;;;12.60;2.40;;;;;;;12.80;65.63;100234.73;111672;1204;22435;-58
2021/09/10 01:09:02;;;;;;;10.90;2.80;;;;;;;12.77;65.78;100232.20;111689;1203;24111;-61
2021/09/10 01:11:31;;;;;;;10.20;2.70;;;;;;;12.74;65.93;100238.39;111826;1204;22448;-56
2021/09/10 01:14:00;;;;;;;10.20;2.80;;;;;;;12.70;65.81;100242.23;111653;1204;22446;-59
2021/09/10 01:16:29;;;;;;;9.90;2.50;;;;;;;12.66;65.92;100241.77;111813;1203;24349;-60
2021/09/10 01:19:01;;;;;;;11.50;2.80;;;;;;;12.61;66.07;100241.48;111756;1203;23110;-59
2021/09/10 01:21:29;;;;;;;11.10;2.80;;;;;;;12.58;66.13;100241.04;111707;1203;24151;-59
2021/09/10 01:23:57;;;;;;;14.50;3.30;;;;;;;12.56;66.29;100241.98;111742;1204;22441;-58
2021/09/10 01:26:25;;;;;;;13.70;2.40;;;;;;;12.53;66.30;100243.33;111970;1204;23038;-60
2021/09/10 01:28:54;;;;;;;9.90;2.90;;;;;;;12.52;66.45;100237.05;111880;1203;22438;-60
2021/09/10 01:31:22;;;;;;;11.90;2.40;;;;;;;12.51;66.33;100238.70;111732;1203;25175;-59
2021/09/10 01:33:52;;;;;;;12.00;3.40;;;;;;;12.48;66.43;100238.06;111845;1204;25099;-59
2021/09/10 01:36:22;;;;;;;7.80;2.50;;;;;;;12.45;66.76;100241.39;112077;1203;22449;-58
2021/09/10 01:38:50;;;;;;;9.00;3.10;;;;;;;12.42;66.67;100238.91;111851;1204;24112;-60
2021/09/10 01:41:18;;;;;;;9.60;2.60;;;;;;;12.41;66.96;100238.80;112184;1204;22445;-60
2021/09/10 01:43:47;;;;;;;8.30;2.50;;;;;;;12.38;66.90;100236.08;112201;1204;24144;-60
2021/09/10 01:46:16;;;;;;;10.80;2.90;;;;;;;12.37;66.96;100235.55;112173;1203;25054;-61
2021/09/10 01:48:50;;;;;;;10.40;2.80;;;;;;;12.36;67.07;100235.53;112290;1203;25469;-60
2021/09/10 01:51:18;;;;;;;13.00;3.20;;;;;;;12.36;67.21;100239.52;112455;1203;22436;-59
2021/09/10 01:53:47;;;;;;;14.50;2.90;;;;;;;12.35;67.12;100234.71;112175;1204;22456;-60
2021/09/10 01:56:15;;;;;;;12.90;2.60;;;;;;;12.34;67.29;100236.89;111959;1204;25752;-58
2021/09/10 01:58:43;;;;;;;10.80;2.50;;;;;;;12.34;67.25;100235.98;112089;1204;22478;-60
2021/09/10 02:01:12;;;;;;;12.90;3.90;;;;;;;12.34;67.40;100235.61;112147;1204;22455;-60
2021/09/10 02:03:42;;;;;;;10.40;3.00;;;;;;;12.33;67.38;100230.02;112118;1204;23956;-60
2021/09/10 02:06:13;;;;;;;12.70;2.50;;;;;;;12.35;67.56;100230.64;112177;1204;22691;-59
2021/09/10 02:08:41;;;;;;;12.70;3.30;;;;;;;12.35;67.43;100229.21;112012;1204;25213;-58
2021/09/10 02:11:11;;;;;;;12.10;3.10;;;;;;;12.34;67.62;100224.92;112020;1204;25215;-59
2021/09/10 02:13:42;;;;;;;10.40;3.00;;;;;;;12.35;67.64;100227.93;112150;1205;22589;-58
2021/09/10 02:16:11;;;;;;;10.20;3.30;;;;;;;12.34;67.60;100227.48;111983;1204;25154;-61
2021/09/10 02:18:40;;;;;;;8.20;2.60;;;;;;;12.34;67.58;100228.09;112319;1206;24277;-60
2021/09/10 02:21:09;;;;;;;14.20;3.20;;;;;;;12.35;67.50;100229.89;112133;1206;24134;-62
2021/09/10 02:23:37;;;;;;;13.70;2.60;;;;;;;12.35;67.71;100228.31;112163;1204;22635;-60
2021/09/10 02:26:06;;;;;;;16.90;3.50;;;;;;;12.34;67.75;100233.78;112105;1203;24162;-62
2021/09/10 02:28:36;;;;;;;11.50;3.20;;;;;;;12.34;67.73;100230.92;112116;1204;22492;-63
2021/09/10 02:31:05;;;;;;;11.10;2.60;;;;;;;12.33;67.81;100235.05;112174;1204;25313;-61
2021/09/10 02:33:33;;;;;;;7.90;2.50;;;;;;;12.32;67.74;100232.48;112151;1203;22443;-58
2021/09/10 02:36:02;;;;;;;13.50;2.80;;;;;;;12.31;67.89;100230.34;112140;1203;23794;-59
2021/09/10 02:38:31;;;;;;;9.30;2.70;;;;;;;12.31;67.80;100226.27;112299;1207;25341;-62
2021/09/10 02:40:59;;;;;;;10.90;2.60;;;;;;;12.30;68.03;100224.05;112199;1207;22513;-62
2021/09/10 02:43:27;;;;;;;15.30;3.10;;;;;;;12.28;67.97;100223.34;112150;1204;22415;-62
2021/09/10 02:45:57;;;;;;;12.30;3.30;;;;;;;12.27;68.10;100222.45;112081;1205;25217;-60
2021/09/10 02:48:26;;;;;;;11.30;2.70;;;;;;;12.27;68.06;100220.00;112120;1203;23789;-58
2021/09/10 02:50:55;;;;;;;13.00;3.20;;;;;;;12.26;68.30;100220.86;112066;1205;22609;-60
2021/09/10 02:53:24;;;;;;;12.50;2.70;;;;;;;12.25;68.26;100222.98;112191;1207;24098;-60
2021/09/10 02:55:52;;;;;;;11.90;3.00;;;;;;;12.24;68.28;100218.48;112125;1204;22450;-58
2021/09/10 02:58:21;;;;;;;10.50;2.90;;;;;;;12.23;68.14;100222.15;112138;1204;24069;-59
2021/09/10 03:00:50;;;;;;;14.00;2.90;;;;;;;12.21;68.13;100225.19;112245;1205;22501;-62
2021/09/10 03:03:18;;;;;;;15.10;3.40;;;;;;;12.19;68.37;100224.61;112330;1209;22442;-61
2021/09/10 03:05:46;;;;;;;12.40;3.20;;;;;;;12.17;68.39;100228.05;112129;1204;23681;-63
2021/09/10 03:08:14;;;;;;;8.80;2.50;;;;;;;12.15;68.41;100232.09;112047;1204;22614;-59
2021/09/10 03:10:46;;;;;;;11.90;3.00;;;;;;;12.14;68.58;100228.52;112144;1205;22470;-61
2021/09/10 03:13:14;;;;;;;11.90;3.00;;;;;;;12.11;68.54;100233.30;112211;1203;22456;-61
2021/09/10 03:15:42;;;;;;;13.00;2.90;;;;;;;12.08;68.61;100232.19;112111;1203;22452;-60
2021/09/10 03:18:11;;;;;;;11.20;2.80;;;;;;;12.07;68.66;100232.29;112078;1204;24220;-61
2021/09/10 03:20:39;;;;;;;13.40;3.20;;;;;;;12.06;68.68;100231.36;112171;1204;24243;-61
2021/09/10 03:23:07;;;;;;;11.10;3.20;;;;;;;12.04;68.79;100228.63;112091;1207;22451;-59
2021/09/10 03:25:35;;;;;;;16.90;3.60;;;;;;;12.02;68.67;100227.45;112233;1204;22466;-59
2021/09/10 03:28:04;;;;;;;10.50;3.10;;;;;;;12.01;68.79;100226.62;112160;1205;26301;-58
2021/09/10 03:30:33;;;;;;;16.60;2.70;;;;;;;11.99;68.84;100224.77;112156;1205;25403;-59
2021/09/10 03:33:01;;;;;;;10.30;2.80;;;;;;;11.97;68.84;100220.77;112329;1203;25220;-61
2021/09/10 03:35:29;;;;;;;13.40;3.50;;;;;;;11.96;68.88;100222.99;112084;1204;22469;-60
2021/09/10 03:37:57;;;;;;;11.20;2.80;;;;;;;11.95;68.99;100219.66;112210;1204;24074;-61
2021/09/10 03:40:30;;;;;;;13.70;3.20;;;;;;;11.91;68.98;100221.95;112147;1204;22506;-61
2021/09/10 03:43:00;;;;;;;9.90;2.70;;;;;;;11.86;69.02;100221.54;112148;1205;22696;-58
2021/09/10 03:45:28;;;;;;;9.70;2.90;;;;;;;11.83;69.11;100218.28;112087;1205;22552;-60
2021/09/10 03:47:56;;;;;;;12.80;2.90;;;;;;;11.79;69.01;100218.19;112188;1205;24609;-58
2021/09/10 03:50:25;;;;;;;13.20;3.80;;;;;;;11.76;69.13;100217.42;112146;1207;22447;-62
2021/09/10 03:52:54;;;;;;;12.00;3.40;;;;;;;11.74;69.32;100215.21;112199;1204;23167;-59
2021/09/10 03:55:23;;;;;;;13.60;3.30;;;;;;;11.72;69.27;100216.86;112145;1205;22467;-60
2021/09/10 03:57:51;;;;;;;16.60;3.50;;;;;;;11.71;69.29;100214.91;112259;1209;22585;-61
2021/09/10 04:00:22;;;;;;;11.20;3.00;;;;;;;11.70;69.38;100214.95;112176;1204;22460;-61
2021/09/10 04:02:50;;;;;;;12.30;3.10;;;;;;;11.67;69.44;100214.09;112146;1204;22458;-59
2021/09/10 04:05:18;;;;;;;13.30;3.80;;;;;;;11.65;69.53;100213.06;112176;1207;22503;-58
2021/09/10 04:07:46;;;;;;;10.00;3.40;;;;;;;11.61;69.54;100211.23;112028;1205;24035;-61
2021/09/10 04:10:15;;;;;;;11.50;2.80;;;;;;;11.59;69.65;100212.62;112125;1204;25364;-61
2021/09/10 04:12:43;;;;;;;13.30;3.20;;;;;;;11.57;69.75;100208.11;112051;1209;22489;-60
2021/09/10 04:15:11;;;;;;;11.60;2.90;;;;;;;11.54;69.82;100214.08;112030;1204;24039;-60
2021/09/10 04:17:39;;;;;;;10.80;2.70;;;;;;;11.52;69.85;100214.77;112057;1205;22456;-59
2021/09/10 04:20:12;;;;;;;16.50;3.70;;;;;;;11.51;69.94;100220.09;111900;1204;24122;-62
2021/09/10 04:22:42;;;;;;;13.70;3.60;;;;;;;11.49;70.00;100224.78;112115;1205;25164;-59
2021/09/10 04:25:11;;;;;;;11.50;3.20;;;;;;;11.47;70.09;100222.89;111883;1204;23771;-61
2021/09/10 04:27:40;;;;;;;9.20;2.50;;;;;;;11.44;70.14;100224.90;112022;1205;24160;-62
2021/09/10 04:30:11;;;;;;;13.50;2.90;;;;;;;11.41;70.25;100231.54;112735;1205;22399;-62
2021/09/10 04:32:40;;;;;;;12.60;3.10;;;;;;;11.40;70.15;100231.41;112380;1205;25020;-64
2021/09/10 04:35:11;;;;;;;10.60;2.80;;;;;;;11.38;70.34;100226.49;112479;1205;23160;-58
2021/09/10 04:37:40;;;;;;;10.80;3.10;;;;;;;11.36;70.39;100228.66;112374;1205;22480;-58
2021/09/10 04:40:11;;;;;;;12.70;3.20;;;;;;;11.36;70.35;100225.44;112345;1204;22496;-64
2021/09/10 04:42:40;;;;;;;13.90;3.60;;;;;;;11.35;70.43;100227.88;112508;1204;22455;-63
2021/09/10 04:45:10;;;;;;;18.70;3.90;;;;;;;11.34;70.46;100230.65;112323;1205;24698;-57
2021/09/10 04:47:38;;;;;;;15.60;4.10;;;;;;;11.33;70.56;100232.73;112391;1205;22848;-57
2021/09/10 04:50:08;;;;;;;14.30;3.70;;;;;;;11.32;70.60;100233.56;112101;1204;22551;-58
2021/09/10 04:52:41;;;;;;;12.30;3.10;;;;;;;11.30;70.85;100228.06;112660;1204;22485;-59
2021/09/10 04:55:11;;;;;;;13.30;3.50;;;;;;;11.29;70.88;100234.08;112336;1205;25213;-59
2021/09/10 04:57:40;;;;;;;13.00;3.10;;;;;;;11.28;70.96;100230.55;112243;1204;22460;-58
2021/09/10 05:00:11;;;;;;;9.40;2.80;;;;;;;11.28;71.02;100234.63;112430;1205;22456;-58
2021/09/10 05:02:41;;;;;;;15.50;3.10;;;;;;;11.29;70.91;100235.73;112354;1204;23935;-59
2021/09/10 05:05:11;;;;;;;18.80;3.50;;;;;;;11.30;70.93;100237.91;112262;1208;26689;-58
2021/09/10 05:07:40;;;;;;;14.20;3.60;;;;;;;11.32;71.20;100241.55;112475;1206;22464;-57
2021/09/10 05:10:10;;;;;;;15.10;3.50;;;;;;;11.33;71.34;100242.18;112356;1205;23565;-59
2021/09/10 05:12:41;;;;;;;19.00;3.90;;;;;;;11.35;71.29;100243.17;112413;1204;23104;-58
2021/09/10 05:15:11;;;;;;;13.00;3.20;;;;;;;11.38;71.35;100244.70;112426;1204;24042;-58
2021/09/10 05:17:39;;;;;;;13.40;3.30;;;;;;;11.43;71.32;100246.85;112602;1204;22500;-59
2021/09/10 05:20:10;;;;;;;17.40;3.40;;;;;;;11.47;71.30;100248.85;112366;1207;23149;-58
2021/09/10 05:22:38;;;;;;;15.60;4.00;;;;;;;11.52;71.30;100249.67;112601;1204;25226;-57
2021/09/10 05:25:08;;;;;;;18.40;3.80;;;;;;;11.57;71.38;100249.41;112382;1206;22481;-60
2021/09/10 05:27:38;;;;;;;13.20;2.80;;;;;;;11.63;71.53;100248.09;112416;1205;22468;-59
2021/09/10 05:30:10;;;;;;;13.20;3.50;;;;;;;11.70;71.49;100250.54;112385;1207;24161;-59
2021/09/10 05:32:39;;;;;;;17.60;4.20;;;;;;;11.76;71.46;100247.88;112402;1204;25828;-60
2021/09/10 05:35:10;;;;;;;12.80;3.20;;;;;;;11.83;71.55;100248.98;112405;1204;22473;-59
2021/09/10 05:37:38;;;;;;;10.80;2.90;;;;;;;11.89;71.59;100253.41;112476;1206;25162;-58
2021/09/10 05:40:10;;;;;;;14.90;3.60;;;;;;;11.93;71.62;100258.49;112409;1204;22690;-57
2021/09/10 05:42:38;;;;;;;15.10;3.60;;;;;;;11.99;71.65;100257.72;112463;1204;25263;-56
2021/09/10 05:45:09;;;;;;;9.50;2.70;;;;;;;12.06;71.56;100261.36;112391;1204;24199;-56
2021/09/10 05:47:48;;;;;;;10.20;2.80;;;;;;;12.12;71.81;100260.04;112334;1206;22443;-59
2021/09/10 05:50:18;;;;;;;12.20;2.80;;;;;;;12.20;71.90;100262.22;112293;1205;22438;-58
2021/09/10 05:52:47;;;;;;;12.30;3.10;;;;;;;12.27;71.69;100263.02;112387;1205;25250;-59
2021/09/10 05:55:15;;;;;;;17.50;3.50;;;;;;;12.35;71.91;100263.77;112459;1205;22796;-58
2021/09/10 05:57:43;;;;;;;12.50;2.70;;;;;;;12.43;72.16;100263.25;112374;1204;22459;-58
2021/09/10 06:00:15;;;;;;;11.60;2.80;;;;;;;12.50;72.10;100257.23;112409;1203;22453;-57
2021/09/10 06:02:43;;;;;;;13.70;2.70;;;;;;;12.57;72.13;100261.38;112528;1205;25218;-58
2021/09/10 06:05:12;;;;;;;13.00;2.70;;;;;;;12.64;72.15;100264.88;112372;1198;22482;-62
2021/09/10 06:07:41;;;;;;;12.50;2.90;;;;;;;12.71;72.07;100266.33;111907;1209;22504;-63
2021/09/10 06:10:13;;;;;;;11.70;2.50;;;;;;;12.79;72.00;100263.61;112211;1202;26272;-62
2021/09/10 06:12:41;;;;;;;11.60;2.50;;;;;;;12.86;72.09;100269.89;114299;1206;25679;-62
2021/09/10 06:15:12;;;;;;;8.30;2.80;;;;;;;12.94;72.05;100265.85;111862;1209;22571;-62
2021/09/10 06:17:40;;;;;;;15.60;3.10;;;;;;;13.03;72.27;100267.88;111963;1205;24088;-62
2021/09/10 06:20:11;;;;;;;11.40;2.40;;;;;;;13.11;72.24;100261.00;112066;1203;22456;-62
2021/09/10 06:22:40;;;;;;;12.00;2.40;;;;;;;13.18;72.07;100261.57;111796;1203;22456;-62
2021/09/10 06:25:10;;;;;;;11.40;2.40;;;;;;;13.27;72.03;100258.70;111743;1203;24093;-62
2021/09/10 06:27:38;;;;;;;9.50;2.60;;;;;;;13.35;72.22;100258.05;111916;1203;22434;-62
2021/09/10 06:30:09;;;;;;;16.60;2.50;;;;;;;13.45;72.36;100258.17;111810;1203;25160;-62
2021/09/10 06:32:38;;;;;;;10.00;2.20;;;;;;;13.55;72.36;100260.17;111958;1205;24076;-62
2021/09/10 06:35:08;;;;;;;12.80;2.50;;;;;;;13.65;72.03;100256.64;111873;1202;26327;-62
2021/09/10 06:37:37;;;;;;;14.90;2.90;;;;;;;13.76;71.91;100265.11;111969;1202;24271;-62
2021/09/10 06:40:08;;;;;;;12.00;2.80;;;;;;;13.84;71.94;100260.68;111955;1201;22897;-62
2021/09/10 06:42:37;;;;;;;12.70;3.20;;;;;;;13.93;72.03;100260.53;112169;1202;22448;-62
2021/09/10 06:45:08;;;;;;;15.60;2.90;;;;;;;14.02;72.04;100267.06;111836;1202;22452;-61
2021/09/10 06:47:38;;;;;;;10.60;2.90;;;;;;;14.13;71.99;100270.13;111807;1205;26338;-63
2021/09/10 06:50:10;;;;;;;11.60;2.30;;;;;;;14.23;72.02;100272.38;111782;1205;24857;-62
2021/09/10 06:52:38;;;;;;;13.90;2.10;;;;;;;14.36;71.98;100275.67;111765;1205;22490;-62
2021/09/10 06:55:09;;;;;;;12.50;2.80;;;;;;;14.46;71.77;100274.44;112147;1202;22570;-63
2021/09/10 06:57:38;;;;;;;13.80;2.80;;;;;;;14.58;71.75;100279.13;112063;1205;25176;-62
2021/09/10 07:00:14;;;;;;;12.10;2.50;;;;;;;14.70;71.39;100275.64;111838;1202;22743;-62
2021/09/10 07:02:43;;;;;;;13.10;3.10;;;;;;;14.80;71.28;100277.81;111883;1205;25143;-62
2021/09/10 07:05:13;;;;;;;14.40;3.10;;;;;;;14.91;71.36;100277.80;111746;1204;25028;-62
2021/09/10 07:07:41;;;;;;;11.80;2.90;;;;;;;15.07;71.14;100279.41;111973;1202;24104;-62
2021/09/10 07:10:11;;;;;;;9.90;2.20;;;;;;;15.25;70.98;100280.39;111759;1202;28038;-62
2021/09/10 07:12:39;;;;;;;9.70;2.30;;;;;;;15.41;70.47;100278.88;112290;1206;21791;-64
2021/09/10 07:15:10;;;;;;;13.10;2.10;;;;;;;15.52;70.24;100278.13;112029;1202;22561;-63
2021/09/10 07:17:38;;;;;;;11.50;2.00;;;;;;;15.62;70.03;100285.14;112014;1202;22446;-62
2021/09/10 07:20:08;;;;;;;8.50;2.00;;;;;;;15.76;69.96;100281.83;111715;1202;25065;-63
2021/09/10 07:22:36;;;;;;;10.70;1.90;;;;;;;15.90;69.65;100284.12;111977;1202;22568;-63
2021/09/10 07:25:08;;;;;;;9.80;1.70;;;;;;;16.02;69.47;100286.23;111823;1206;22458;-62
2021/09/10 07:27:37;;;;;;;8.80;1.80;;;;;;;16.14;69.32;100282.02;111834;1202;22448;-62
2021/09/10 07:30:07;;;;;;;7.00;1.80;;;;;;;16.29;69.14;100280.64;111822;1203;22439;-63
2021/09/10 07:32:35;;;;;;;11.10;1.70;;;;;;;16.41;68.93;100276.09;112011;1204;22484;-63
2021/09/10 07:35:05;;;;;;;9.40;1.70;;;;;;;16.53;68.81;100271.16;111876;1202;25157;-62
2021/09/10 07:37:34;;;;;;;9.10;2.10;;;;;;;16.64;68.57;100274.36;111791;1202;22532;-61
2021/09/10 07:40:02;;;;;;;7.60;1.80;;;;;;;16.76;68.33;100277.36;111865;1206;22628;-62
2021/09/10 07:42:33;;;;;;;6.90;1.50;;;;;;;16.87;68.30;100276.84;111879;1203;22441;-63
2021/09/10 07:45:01;;;;;;;9.50;1.60;;;;;;;16.99;68.13;100275.08;111834;1202;22435;-64
2021/09/10 07:47:30;;;;;;;7.50;1.60;;;;;;;17.10;67.74;100277.05;111658;1205;22448;-62
2021/09/10 07:49:59;;;;;;;6.80;1.30;;;;;;;17.23;67.54;100280.70;111923;1204;23963;-62
2021/09/10 07:52:27;;;;;;;8.30;1.40;;;;;;;17.34;67.22;100276.61;111747;1204;23038;-61
2021/09/10 07:54:58;;;;;;;8.20;1.90;;;;;;;17.47;67.09;100276.58;111797;1205;22555;-62
2021/09/10 07:57:26;;;;;;;17.10;1.90;;;;;;;17.62;66.98;100278.21;111831;1202;25130;-62
2021/09/10 07:59:58;;;;;;;6.80;1.30;;;;;;;17.74;66.64;100279.84;111767;1202;24032;-62
2021/09/10 08:02:28;;;;;;;11.50;1.80;;;;;;;17.87;66.38;100277.46;111887;1204;24045;-62
2021/09/10 08:04:57;;;;;;;6.80;1.70;;;;;;;17.98;66.36;100276.77;111717;1202;22837;-62
2021/09/10 08:07:26;;;;;;;9.00;1.90;;;;;;;18.07;66.17;100277.34;111800;1205;22469;-62
2021/09/10 08:09:54;;;;;;;10.40;1.60;;;;;;;18.17;65.67;100276.52;111740;1203;25437;-62
2021/09/10 08:12:23;;;;;;;11.70;1.50;;;;;;;18.25;65.33;100279.15;111648;1205;22562;-62
2021/09/10 08:14:52;;;;;;;8.70;1.90;;;;;;;18.38;65.52;100278.68;111728;1202;25125;-62
2021/09/10 08:17:20;;;;;;;12.00;1.80;;;;;;;18.52;65.41;100286.92;111744;1202;22463;-62
2021/09/10 08:19:49;;;;;;;12.60;1.70;;;;;;;18.68;65.02;100283.89;111763;1202;22602;-62
2021/09/10 08:22:19;;;;;;;8.70;1.80;;;;;;;18.84;64.73;100279.36;111708;1203;22670;-62
2021/09/10 08:24:47;;;;;;;8.20;1.40;;;;;;;18.96;64.43;100279.27;112000;1206;22446;-63
2021/09/10 08:27:15;;;;;;;10.70;1.40;;;;;;;19.06;64.29;100279.64;111688;1205;25421;-62
2021/09/10 08:29:44;;;;;;;10.30;1.40;;;;;;;19.15;63.91;100278.58;111983;1205;25053;-62
2021/09/10 08:32:13;;;;;;;7.20;1.30;;;;;;;19.29;63.69;100274.14;112006;1204;22989;-62
2021/09/10 08:34:41;;;;;;;7.20;1.40;;;;;;;19.43;63.34;100273.38;111946;1204;25327;-62
2021/09/10 08:37:09;;;;;;;9.10;1.50;;;;;;;19.58;63.00;100278.96;111725;1202;25068;-62
2021/09/10 08:39:37;;;;;;;4.30;1.30;;;;;;;19.68;62.58;100276.66;112118;1202;23154;-62
2021/09/10 08:42:08;;;;;;;8.90;1.20;;;;;;;19.81;62.46;100281.95;111790;1206;22440;-62
2021/09/10 08:44:39;;;;;;;11.20;1.30;;;;;;;19.93;62.04;100280.70;112082;1203;22452;-62
2021/09/10 08:47:08;;;;;;;9.50;1.50;;;;;;;20.03;61.79;100284.37;111950;1206;24166;-62
2021/09/10 08:49:38;;;;;;;12.20;1.50;;;;;;;20.10;61.54;100281.05;111885;1203;24555;-62
2021/09/10 08:52:07;;;;;;;9.30;1.40;;;;;;;20.20;61.27;100286.48;111899;1202;25273;-62
2021/09/10 08:54:35;;;;;;;9.10;1.10;;;;;;;20.35;61.15;100288.31;111855;1203;25132;-62
2021/09/10 08:57:04;;;;;;;14.10;1.40;;;;;;;20.47;60.86;100284.24;111846;1206;22451;-62
2021/09/10 08:59:32;;;;;;;8.40;1.40;;;;;;;20.57;59.81;100288.73;111966;1205;22454;-62
2021/09/10 09:02:04;;;;;;;6.80;1.30;;;;;;;20.76;59.84;100292.71;111740;1202;22453;-62
2021/09/10 09:04:33;;;;;;;9.10;1.30;;;;;;;20.87;59.66;100295.77;111860;1202;24104;-62
2021/09/10 09:07:03;;;;;;;7.90;1.40;;;;;;;20.95;59.69;100291.92;111805;1205;25153;-62
2021/09/10 09:09:38;;;;;;;;;;;;;;;21.04;59.23;100291.92;111862;1205;25171;-62
2021/09/10 09:12:17;;;;;;;5.10;1.20;;;;;;;21.17;59.02;100291.70;111908;1204;22486;-63
2021/09/10 09:14:48;;;;;;;8.90;1.10;;;;;;;21.33;58.48;100290.80;111806;1202;23507;-62
2021/09/10 09:17:21;;;;;;;7.30;1.00;;;;;;;21.44;58.49;100289.65;111968;1203;25024;-62
2021/09/10 09:20:11;;;;;;;6.10;1.50;;;;;;;21.50;58.01;100291.16;111751;1202;22546;-62
2021/09/10 09:23:04;;;;;;;7.00;1.00;;;;;;;21.55;57.83;100287.65;111845;1202;22396;-62
2021/09/10 09:25:34;;;;;;;7.60;1.10;;;;;;;21.63;57.31;100287.83;111712;1202;22450;-62
2021/09/10 09:28:21;;;;;;;;;;;;;;;21.71;57.09;100282.42;111960;1202;26584;-62
2021/09/10 09:30:52;;;;;;;11.70;1.40;;;;;;;21.84;57.45;100281.66;111914;1202;25021;-62
2021/09/10 09:33:23;;;;;;;8.40;1.20;;;;;;;21.94;56.89;100283.76;112181;1203;22456;-62
2021/09/10 09:35:56;;;;;;;9.00;1.20;;;;;;;22.02;56.50;100276.30;111711;1204;22460;-62
2021/09/10 09:38:26;;;;;;;10.00;1.30;;;;;;;22.10;56.40;100271.81;111857;1203;25064;-62
2021/09/10 09:40:56;;;;;;;4.90;1.10;;;;;;;22.16;56.33;100271.85;111927;1203;22491;-63
2021/09/10 09:43:27;;;;;;;10.60;1.40;;;;;;;22.23;56.36;100270.91;112078;1203;22467;-62
2021/09/10 09:45:56;;;;;;;5.60;1.30;;;;;;;22.33;55.36;100267.73;111849;1203;24205;-62
2021/09/10 09:48:26;;;;;;;7.80;0.90;;;;;;;22.44;55.20;100264.58;111813;1203;22543;-62
2021/09/10 09:50:57;;;;;;;15.40;1.50;;;;;;;22.52;54.76;100263.86;111961;1204;22455;-62
2021/09/10 09:53:26;;;;;;;4.90;1.00;;;;;;;22.59;54.54;100261.41;112128;1200;22453;-63
2021/09/10 09:55:54;;;;;;;6.60;1.10;;;;;;;22.67;54.24;100261.15;111948;1203;22454;-62
2021/09/10 09:58:22;;;;;;;8.50;1.30;;;;;;;22.75;53.75;100265.39;111890;1203;25131;-62
2021/09/10 10:00:50;;;;;;;5.70;1.10;;;;;;;22.83;53.73;100265.04;111833;1205;22684;-62
2021/09/10 10:03:19;;;;;;;11.60;1.30;;;;;;;22.95;53.57;100265.04;111890;1203;24070;-62
2021/09/10 10:05:59;;;;;;;12.40;1.20;;;;;;;23.03;53.41;100266.02;112018;1206;22466;-62
2021/09/10 10:08:32;;;;;;;3.50;1.00;;;;;;;23.14;53.17;100266.19;111960;1203;22547;-62
2021/09/10 10:11:07;;;;;;;7.10;1.00;;;;;;;23.26;52.83;100267.46;111925;1203;22445;-62
2021/09/10 10:13:38;;;;;;;4.50;0.80;;;;;;;23.34;52.38;100264.42;111703;1203;24277;-62
2021/09/10 10:16:28;;;;;;;6.50;0.80;;;;;;;23.46;50.98;100261.29;111859;1203;22450;-62
2021/09/10 10:18:56;;;;;;;6.30;1.10;;;;;;;23.58;50.23;100259.48;111781;1203;22450;-61
2021/09/10 10:21:52;;;;;;;4.20;0.80;;;;;;;23.72;49.29;100258.23;111704;1204;22454;-63
2021/09/10 10:24:49;;;;;;;4.10;0.80;;;;;;;23.87;49.02;100256.66;112028;1204;22466;-63
2021/09/10 10:27:34;;;;;;;5.20;0.90;;;;;;;23.99;48.16;100254.26;111961;1205;22461;-63
2021/09/10 10:30:05;;;;;;;7.10;1.10;;;;;;;24.12;47.58;100254.94;111716;1206;22565;-62
2021/09/10 10:32:36;;;;;;;9.80;0.90;;;;;;;24.19;47.37;100255.30;111618;1205;22469;-62
2021/09/10 10:35:19;;;;;;;4.90;0.90;;;;;;;24.25;46.94;100257.30;111442;1207;25084;-62
2021/09/10 10:37:49;;;;;;;7.70;0.80;;;;;;;24.36;46.44;100256.90;111519;1206;22510;-62
2021/09/10 10:40:35;;;;;;;6.40;0.90;;;;;;;24.48;45.71;100258.71;111509;1207;22457;-62
2021/09/10 10:43:06;;;;;;;6.90;1.10;;;;;;;24.60;45.43;100261.52;111985;1206;22594;-63
2021/09/10 10:46:06;;;;;;;10.70;1.00;;;;;;;24.66;45.19;100257.39;111540;1205;22860;-62
2021/09/10 10:48:50;;;;;;;9.30;1.00;;;;;;;24.71;44.73;100259.14;111446;1207;22454;-62
2021/09/10 10:51:51;;;;;;;5.50;1.00;;;;;;;24.80;44.53;100256.08;111627;1206;24125;-62
2021/09/10 10:54:28;;;;;;;7.50;0.70;;;;;;;24.89;43.83;100253.50;111390;1206;22451;-63
2021/09/10 10:56:59;;;;;;;5.00;0.80;;;;;;;24.93;43.44;100253.27;111559;1205;22453;-62
2021/09/10 10:59:38;;;;;;;6.30;0.90;;;;;;;25.02;43.07;100255.19;111715;1205;23144;-63
2021/09/10 11:02:35;;;;;;;6.30;0.90;;;;;;;25.06;43.06;100252.42;111681;1206;22456;-62
2021/09/10 11:05:14;;;;;;;7.70;0.90;;;;;;;25.09;42.80;100252.48;111530;1207;24176;-64
2021/09/10 11:07:44;;;;;;;8.90;1.10;;;;;;;25.10;42.44;100249.77;111941;1209;24269;-63
2021/09/10 11:10:18;;;;;;;5.40;0.80;;;;;;;25.13;42.09;100245.90;112057;1206;22687;-62
2021/09/10 11:12:48;;;;;;;5.60;1.00;;;;;;;25.17;41.83;100247.55;111839;1207;22459;-62
2021/09/10 11:15:20;;;;;;;6.00;0.90;;;;;;;25.22;41.28;100248.95;111748;1206;24193;-63
2021/09/10 11:18:01;;;;;;;6.70;0.80;;;;;;;25.28;41.09;100248.52;111378;1208;22473;-62
2021/09/10 11:20:34;;;;;;;4.20;0.90;;;;;;;25.37;40.80;100249.09;111474;1208;22511;-62
2021/09/10 11:23:03;;;;;;;9.40;1.00;;;;;;;25.39;40.64;100245.19;111515;1206;24089;-62
2021/09/10 11:25:33;;;;;;;7.40;0.90;;;;;;;25.42;40.69;100251.04;111565;1205;22474;-62
2021/09/10 11:28:09;;;;;;;7.20;0.80;;;;;;;25.46;40.52;100249.36;111619;1206;25345;-62